Observation data for Lamesa on 12/07/2018      Previous  Date       Current Mesonet Observations  Soil Data  Daily Summary Page  Observations in Plain Language
KLES 070600Z 06004KT 02/M03 A3031 RMK A01 T00191027  RH  072%=      5-min Rain = 0
KLES 070605Z 07004KT 02/M03 A3031 RMK A01 T00191027  RH  072%=      5-min Rain = 0
KLES 070610Z 06004KT 02/M03 A3032 RMK A01 T00201027  RH  072%=      5-min Rain = 0
KLES 070615Z 06004KT 02/M03 A3031 RMK A01 T00201026  RH  072%=      5-min Rain = 0
KLES 070620Z 06004KT 02/M03 A3031 RMK A01 T00201026  RH  072%=      5-min Rain = 0
KLES 070625Z 06005KT 02/M03 A3031 RMK A01 T00201027  RH  072%=      5-min Rain = 0
KLES 070630Z 06006KT 02/M03 A3031 RMK A01 T00191027  RH  072%=      5-min Rain = 0
KLES 070635Z 05006KT 02/M03 A303 RMK A01 T00191027  RH  072%=      5-min Rain = 0
KLES 070640Z 04005KT 02/M03 A303 RMK A01 T00191028  RH  072%=      5-min Rain = 0
KLES 070645Z 04004KT 02/M03 A3031 RMK A01 T00191027  RH  072%=      5-min Rain = 0
KLES 070650Z 04003KT 02/M03 A3031 RMK A01 T00191027  RH  072%=      5-min Rain = 0
KLES 070655Z 03005KT 02/M03 A303 RMK A01 T00191027  RH  072%=      5-min Rain = 0
KLES 070700Z 04005KT 02/M03 A303 RMK A01 T00191027  RH  072%=      5-min Rain = 0
KLES 070705Z 03005KT 02/M03 A303 RMK A01 T00191027  RH  072%=      5-min Rain = 0
KLES 070710Z 02005KT 02/M03 A303 RMK A01 T00191027  RH  072%=      5-min Rain = 0
KLES 070715Z 03005KT 02/M03 A303 RMK A01 T00191028  RH  072%=      5-min Rain = 0
KLES 070720Z 03006KT 02/M03 A3029 RMK A01 T00191027  RH  072%=      5-min Rain = 0
KLES 070725Z 02006KT 02/M03 A3029 RMK A01 T00191027  RH  072%=      5-min Rain = 0
KLES 070730Z 03006KT 02/M03 A3029 RMK A01 T00191028  RH  071%=      5-min Rain = 0
KLES 070735Z 04006KT 02/M03 A303 RMK A01 T00191028  RH  071%=      5-min Rain = 0
KLES 070740Z 02007KT 02/M03 A303 RMK A01 T00191028  RH  072%=      5-min Rain = 0
KLES 070745Z 01008KT 02/M03 A303 RMK A01 T00191028  RH  072%=      5-min Rain = 0
KLES 070750Z 01008KT 02/M03 A3029 RMK A01 T00191028  RH  072%=      5-min Rain = 0
KLES 070755Z 02009KT 02/M03 A3029 RMK A01 T00181029  RH  071%=      5-min Rain = 0
KLES 070800Z 02008KT 02/M03 A3029 RMK A01 T00171030  RH  072%=      5-min Rain = 0
KLES 070805Z 03008KT 02/M03 A3029 RMK A01 T00171030  RH  072%=      5-min Rain = 0
KLES 070810Z 02006KT 02/M03 A3029 RMK A01 T00171029  RH  072%=      5-min Rain = 0
KLES 070815Z 02006KT 02/M03 A303 RMK A01 T00171030  RH  072%=      5-min Rain = 0
KLES 070820Z 01005KT 02/M03 A3031 RMK A01 T00171029  RH  072%=      5-min Rain = 0
KLES 070825Z 01005KT 02/M03 A3032 RMK A01 T00171030  RH  072%=      5-min Rain = 0
KLES 070830Z 01005KT 02/M03 A3032 RMK A01 T00171030  RH  072%=      5-min Rain = 0
KLES 070835Z 03005KT 02/M03 A3032 RMK A01 T00171030  RH  072%=      5-min Rain = 0
KLES 070840Z 03005KT 02/M03 A3031 RMK A01 T00161030  RH  072%=      5-min Rain = 0
KLES 070845Z 02005KT 02/M03 A3031 RMK A01 T00161030  RH  072%=      5-min Rain = 0
KLES 070850Z 01007KT 02/M03 A3031 RMK A01 T00161030  RH  072%=      5-min Rain = 0
KLES 070855Z 00006KT 02/M03 A3032 RMK A01 T00161031  RH  071%=      5-min Rain = 0
KLES 070900Z 00006KT 02/M03 A3032 RMK A01 T00161030  RH  071%=      5-min Rain = 0
KLES 070905Z 00007KT 02/M03 A3032 RMK A01 T00161031  RH  071%=      5-min Rain = 0
KLES 070910Z 01007KT 02/M03 A3032 RMK A01 T00161031  RH  071%=      5-min Rain = 0
KLES 070915Z 01008KT 02/M03 A3031 RMK A01 T00171031  RH  071%=      5-min Rain = 0
KLES 070920Z 01007KT 02/M03 A3031 RMK A01 T00171031  RH  071%=      5-min Rain = 0
KLES 070925Z 01009KT 02/M03 A3031 RMK A01 T00171032  RH  071%=      5-min Rain = 0
KLES 070930Z 01008KT 02/M03 A3031 RMK A01 T00161032  RH  070%=      5-min Rain = 0
KLES 070935Z 02008KT 02/M03 A303 RMK A01 T00161032  RH  071%=      5-min Rain = 0
KLES 070940Z 03008KT 02/M03 A303 RMK A01 T00161033  RH  071%=      5-min Rain = 0
KLES 070945Z 03008KT 02/M03 A3029 RMK A01 T00161032  RH  071%=      5-min Rain = 0
KLES 070950Z 03007KT 02/M03 A3029 RMK A01 T00161032  RH  071%=      5-min Rain = 0
KLES 070955Z 03007KT 02/M03 A303 RMK A01 T00161032  RH  071%=      5-min Rain = 0
KLES 071000Z 03007KT 02/M03 A3029 RMK A01 T00161031  RH  071%=      5-min Rain = 0
KLES 071005Z 03009KT 02/M03 A3029 RMK A01 T00151032  RH  072%=      5-min Rain = 0
KLES 071010Z 03007G12KT 02/M03 A3028 RMK A01 T00151032  RH  072%=      5-min Rain = 0
KLES 071015Z 05007KT 02/M03 A3029 RMK A01 T00151031  RH  072%=      5-min Rain = 0
KLES 071020Z 05007KT 02/M03 A3028 RMK A01 T00151031  RH  072%=      5-min Rain = 0
KLES 071025Z 06007KT 02/M03 A3028 RMK A01 T00151030  RH  073%=      5-min Rain = 0
KLES 071030Z 05007KT 01/M03 A3028 RMK A01 T00141029  RH  073%=      5-min Rain = 0
KLES 071035Z 06008KT 01/M03 A3027 RMK A01 T00141027  RH  074%=      5-min Rain = 0
KLES 071040Z 06007KT 01/M03 A3027 RMK A01 T00141025  RH  076%=      5-min Rain = 0
KLES 071045Z 07007KT 01/M02 A3026 RMK A01 T00121022  RH  079%=      5-min Rain = 0
KLES 071050Z 08008KT 01/M02 A3026 RMK A01 T00111019  RH  081%=      5-min Rain = 0
KLES 071055Z 09009KT 01/M02 A3025 RMK A01 T00111018  RH  082%=      5-min Rain = 0
KLES 071100Z 09011KT 01/M02 A3025 RMK A01 T00121017  RH  082%=      5-min Rain = 0
KLES 071105Z 09012KT 01/M02 A3023 RMK A01 T00111017  RH  083%=      5-min Rain = 0
KLES 071110Z 09011KT 01/M02 A3023 RMK A01 T00101016  RH  083%=      5-min Rain = 0
KLES 071115Z 09011KT 01/M02 A3023 RMK A01 T00101015  RH  085%=      5-min Rain = 0
KLES 071120Z 07005G10KT 01/M02 A3025 RMK A01 T00091016  RH  084%=      5-min Rain = 0
KLES 071125Z 04006KT 01/M02 A3025 RMK A01 T00091016  RH  084%=      5-min Rain = 0.01
KLES 071130Z 04003KT 01/M02 A3027 RMK A01 T00081016  RH  085%=      5-min Rain = 0
KLES 071135Z 02001KT 01/M02 A3028 RMK A01 T00071016  RH  085%=      5-min Rain = 0
KLES 071140Z 08002KT 01/M02 A3028 RMK A01 T00071015  RH  086%=      5-min Rain = 0
KLES 071145Z 07003KT 01/M02 A3028 RMK A01 T00071015  RH  086%=      5-min Rain = 0
KLES 071150Z 08003KT 01/M01 A3028 RMK A01 T00081014  RH  086%=      5-min Rain = 0
KLES 071155Z 07003KT 01/M01 A3028 RMK A01 T00081014  RH  086%=      5-min Rain = 0
KLES 071200Z 08003KT 01/M01 A3028 RMK A01 T00081014  RH  086%=      5-min Rain = 0
KLES 071205Z 08003KT 01/M01 A3028 RMK A01 T00091013  RH  086%=      5-min Rain = 0
KLES 071210Z 08004KT 01/M01 A3028 RMK A01 T00091013  RH  086%=      5-min Rain = 0
KLES 071215Z 08002KT 01/M01 A3029 RMK A01 T00101013  RH  086%=      5-min Rain = 0
KLES 071220Z 07001KT 01/M01 A3029 RMK A01 T00101013  RH  085%=      5-min Rain = 0
KLES 071225Z 03001KT 01/M01 A303 RMK A01 T00101013  RH  085%=      5-min Rain = 0
KLES 071230Z 01001KT 01/M01 A303 RMK A01 T00111013  RH  085%=      5-min Rain = 0
KLES 071235Z 03001KT 01/M01 A303 RMK A01 T00111013  RH  085%=      5-min Rain = 0
KLES 071240Z 01002KT 01/M01 A303 RMK A01 T00111012  RH  085%=      5-min Rain = 0
KLES 071245Z 00003KT 01/M01 A303 RMK A01 T00121011  RH  085%=      5-min Rain = 0
KLES 071250Z 01004KT 01/M01 A303 RMK A01 T00121012  RH  085%=      5-min Rain = 0
KLES 071255Z 04005KT 01/M02 A3029 RMK A01 T00111015  RH  084%=      5-min Rain = 0
KLES 071300Z 03005KT 01/M02 A3029 RMK A01 T00101016  RH  083%=      5-min Rain = 0
KLES 071305Z 04003KT 01/M01 A3029 RMK A01 T00111014  RH  084%=      5-min Rain = 0
KLES 071310Z 05005KT 01/M01 A3029 RMK A01 T00111013  RH  085%=      5-min Rain = 0
KLES 071315Z 06006KT 01/M01 A3028 RMK A01 T00101012  RH  086%=      5-min Rain = 0.01
KLES 071320Z 07005KT 01/M01 A3028 RMK A01 T00091012  RH  087%=      5-min Rain = 0
KLES 071325Z 06005KT 01/M01 A3029 RMK A01 T00081011  RH  088%=      5-min Rain = 0
KLES 071330Z 06004KT 01/M01 A3029 RMK A01 T00081011  RH  088%=      5-min Rain = 0
KLES 071335Z 05003KT 01/M01 A3029 RMK A01 T00091009  RH  089%=      5-min Rain = 0
KLES 071340Z 03003KT 01/M01 A303 RMK A01 T00091009  RH  089%=      5-min Rain = 0
KLES 071345Z 05003KT 01/M01 A3029 RMK A01 T00091008  RH  089%=      5-min Rain = 0
KLES 071350Z 04003KT 01/M01 A3029 RMK A01 T00101008  RH  089%=      5-min Rain = 0
KLES 071355Z 04003KT 01/M01 A303 RMK A01 T00111008  RH  088%=      5-min Rain = 0
KLES 071400Z 03003KT 01/M01 A303 RMK A01 T00121008  RH  087%=      5-min Rain = 0
KLES 071405Z 03004KT 01/M01 A303 RMK A01 T00121011  RH  086%=      5-min Rain = 0
KLES 071410Z 02004KT 01/M01 A303 RMK A01 T00131011  RH  085%=      5-min Rain = 0
KLES 071415Z 03003KT 01/M01 A3031 RMK A01 T00131011  RH  085%=      5-min Rain = 0
KLES 071420Z 04003KT 01/M01 A3031 RMK A01 T00141010  RH  085%=      5-min Rain = 0
KLES 071425Z 03004KT 01/M01 A3031 RMK A01 T00141010  RH  085%=      5-min Rain = 0
KLES 071430Z 02005KT 02/M01 A3031 RMK A01 T00151009  RH  085%=      5-min Rain = 0
KLES 071435Z 02004KT 02/M01 A3031 RMK A01 T00151008  RH  085%=      5-min Rain = 0
KLES 071440Z 02005KT 01/M01 A3031 RMK A01 T00141010  RH  085%=      5-min Rain = 0
KLES 071445Z 02006KT 01/M01 A3032 RMK A01 T00141009  RH  085%=      5-min Rain = 0
KLES 071450Z 35006KT 01/M01 A3032 RMK A01 T00141008  RH  086%=      5-min Rain = 0
KLES 071455Z 36006KT 01/M01 A3032 RMK A01 T00141007  RH  087%=      5-min Rain = 0
KLES 071500Z 00007KT 01/M01 A3032 RMK A01 T00121007  RH  088%=      5-min Rain = 0
KLES 071505Z 01005KT 01/M01 A3032 RMK A01 T00111006  RH  089%=      5-min Rain = 0
KLES 071510Z 02005KT 01/M01 A3033 RMK A01 T00111006  RH  090%=      5-min Rain = 0
KLES 071515Z 02006KT 01/M01 A3033 RMK A01 T00101006  RH  089%=      5-min Rain = 0
KLES 071520Z 02005KT 01/M01 A3033 RMK A01 T00111005  RH  090%=      5-min Rain = 0
KLES 071525Z 02006KT 01/M01 A3033 RMK A01 T00111005  RH  090%=      5-min Rain = 0
KLES 071530Z 03005KT 01/M01 A3033 RMK A01 T00111006  RH  090%=      5-min Rain = 0
KLES 071535Z 02006KT 01/M01 A3033 RMK A01 T00101006  RH  090%=      5-min Rain = 0
KLES 071540Z 03005KT 01/M01 A3033 RMK A01 T00101006  RH  090%=      5-min Rain = 0
KLES 071545Z 02006KT 01/M01 A3033 RMK A01 T00111006  RH  090%=      5-min Rain = 0
KLES 071550Z 03005KT 01/M01 A3033 RMK A01 T00111005  RH  090%=      5-min Rain = 0
KLES 071555Z 02007KT 01/M01 A3033 RMK A01 T00111005  RH  090%=      5-min Rain = 0
KLES 071600Z 03007KT 01/M01 A3033 RMK A01 T00111005  RH  090%=      5-min Rain = 0
KLES 071605Z 03006KT 01/M00 A3032 RMK A01 T00111004  RH  090%=      5-min Rain = 0
KLES 071610Z 03006KT 01/M00 A3032 RMK A01 T00121003  RH  091%=      5-min Rain = 0
KLES 071615Z 04007KT 01/M00 A3032 RMK A01 T00111004  RH  091%=      5-min Rain = 0
KLES 071620Z 04006KT 01/M00 A3032 RMK A01 T00121004  RH  091%=      5-min Rain = 0
KLES 071625Z 03006KT 01/M00 A3032 RMK A01 T00121003  RH  091%=      5-min Rain = 0
KLES 071630Z 03007KT 01/M00 A3032 RMK A01 T00121003  RH  091%=      5-min Rain = 0
KLES 071635Z 03007KT 01/M00 A3032 RMK A01 T00121003  RH  091%=      5-min Rain = 0
KLES 071640Z 03006KT 01/M00 A3032 RMK A01 T00121003  RH  091%=      5-min Rain = 0
KLES 071645Z 04008KT 01/M00 A3032 RMK A01 T00121003  RH  091%=      5-min Rain = 0
KLES 071650Z 03008KT 01/M00 A3032 RMK A01 T00121003  RH  091%=      5-min Rain = 0
KLES 071655Z 03008KT 01/M00 A3032 RMK A01 T00121003  RH  091%=      5-min Rain = 0
KLES 071700Z 03008KT 01/M00 A3031 RMK A01 T00121003  RH  091%=      5-min Rain = 0
KLES 071705Z 04008KT 01/M00 A3031 RMK A01 T00131002  RH  091%=      5-min Rain = 0
KLES 071710Z 05007KT 01/M00 A3031 RMK A01 T00121002  RH  092%=      5-min Rain = 0
KLES 071715Z 05008KT 01/M00 A3031 RMK A01 T00121001  RH  092%=      5-min Rain = 0
KLES 071720Z 04008KT 01/00 A3031 RMK A01 T00120000  RH  093%=      5-min Rain = 0
KLES 071725Z 04008KT 01/00 A303 RMK A01 T00110000  RH  093%=      5-min Rain = 0
KLES 071730Z 04007KT 01/00 A303 RMK A01 T00120001  RH  094%=      5-min Rain = 0
KLES 071735Z 04008KT 01/00 A3029 RMK A01 T00120001  RH  094%=      5-min Rain = 0
KLES 071740Z 05006KT 01/00 A3029 RMK A01 T00120002  RH  095%=      5-min Rain = 0
KLES 071745Z 04007KT 01/00 A3029 RMK A01 T00120003  RH  095%=      5-min Rain = 0
KLES 071750Z 04006KT 01/00 A303 RMK A01 T00120003  RH  095%=      5-min Rain = 0
KLES 071755Z 05006KT 01/00 A303 RMK A01 T00120003  RH  095%=      5-min Rain = 0
KLES 071800Z 06006KT 01/00 A303 RMK A01 T00130004  RH  095%=      5-min Rain = 0
KLES 071805Z 05006KT 01/00 A3029 RMK A01 T00120003  RH  095%=      5-min Rain = 0
KLES 071810Z 06007KT 01/00 A3028 RMK A01 T00120004  RH  096%=      5-min Rain = 0
KLES 071815Z 06007KT 01/00 A3028 RMK A01 T00120004  RH  095%=      5-min Rain = 0
KLES 071820Z 05006KT 01/00 A3028 RMK A01 T00120004  RH  096%=      5-min Rain = 0
KLES 071825Z 04007KT 01/00 A3027 RMK A01 T00120004  RH  096%=      5-min Rain = 0
KLES 071830Z 05006KT 01/01 A3027 RMK A01 T00120005  RH  096%=      5-min Rain = 0
KLES 071835Z 04007KT 01/00 A3027 RMK A01 T00120004  RH  096%=      5-min Rain = 0
KLES 071840Z 05007KT 01/01 A3026 RMK A01 T00120005  RH  096%=      5-min Rain = 0
KLES 071845Z 05008KT 01/01 A3025 RMK A01 T00130006  RH  096%=      5-min Rain = 0
KLES 071850Z 04008KT 01/01 A3025 RMK A01 T00130006  RH  096%=      5-min Rain = 0
KLES 071855Z 05008KT 01/01 A3025 RMK A01 T00130005  RH  096%=      5-min Rain = 0
KLES 071900Z 05008KT 01/01 A3025 RMK A01 T00130006  RH  096%=      5-min Rain = 0
KLES 071905Z 05006KT 01/01 A3025 RMK A01 T00140007  RH  096%=      5-min Rain = 0
KLES 071910Z 05007KT 01/01 A3025 RMK A01 T00140006  RH  096%=      5-min Rain = 0
KLES 071915Z 05008KT 01/01 A3024 RMK A01 T00130006  RH  096%=      5-min Rain = 0
KLES 071920Z 05008KT 01/01 A3024 RMK A01 T00130006  RH  096%=      5-min Rain = 0
KLES 071925Z 04007KT 01/01 A3024 RMK A01 T00140007  RH  096%=      5-min Rain = 0
KLES 071930Z 03007KT 01/01 A3024 RMK A01 T00140007  RH  096%=      5-min Rain = 0
KLES 071935Z 04007KT 02/01 A3024 RMK A01 T00150008  RH  096%=      5-min Rain = 0
KLES 071940Z 05007KT 02/01 A3024 RMK A01 T00150008  RH  096%=      5-min Rain = 0
KLES 071945Z 05008KT 02/01 A3024 RMK A01 T00160009  RH  097%=      5-min Rain = 0
KLES 071950Z 05007KT 02/01 A3024 RMK A01 T00170010  RH  097%=      5-min Rain = 0
KLES 071955Z 05008KT 02/01 A3024 RMK A01 T00170010  RH  097%=      5-min Rain = 0
KLES 072000Z 04006KT 02/01 A3024 RMK A01 T00170010  RH  097%=      5-min Rain = 0
KLES 072005Z 03007KT 02/01 A3024 RMK A01 T00170010  RH  097%=      5-min Rain = 0
KLES 072010Z 02007G12KT 02/01 A3024 RMK A01 T00170011  RH  097%=      5-min Rain = 0
KLES 072015Z 02008KT 02/01 A3024 RMK A01 T00170011  RH  097%=      5-min Rain = 0
KLES 072020Z 02008KT 02/01 A3023 RMK A01 T00170011  RH  097%=      5-min Rain = 0
KLES 072025Z 02008KT 02/01 A3023 RMK A01 T00170011  RH  097%=      5-min Rain = 0
KLES 072030Z 02007KT 02/01 A3023 RMK A01 T00160010  RH  097%=      5-min Rain = 0
KLES 072035Z 04007KT 02/01 A3023 RMK A01 T00160010  RH  097%=      5-min Rain = 0
KLES 072040Z 02007KT 02/01 A3024 RMK A01 T00170011  RH  097%=      5-min Rain = 0
KLES 072045Z 03006KT 02/01 A3024 RMK A01 T00170011  RH  097%=      5-min Rain = 0
KLES 072050Z 03007KT 02/01 A3024 RMK A01 T00170011  RH  097%=      5-min Rain = 0
KLES 072055Z 03007KT 02/01 A3023 RMK A01 T00160011  RH  097%=      5-min Rain = 0
KLES 072100Z 03008KT 02/01 A3023 RMK A01 T00160011  RH  097%=      5-min Rain = 0
KLES 072105Z 04006KT 02/01 A3023 RMK A01 T00160011  RH  098%=      5-min Rain = 0
KLES 072110Z 03008KT 02/01 A3022 RMK A01 T00160011  RH  098%=      5-min Rain = 0
KLES 072115Z 03007KT 02/01 A3022 RMK A01 T00160011  RH  098%=      5-min Rain = 0
KLES 072120Z 04007G12KT 02/01 A3022 RMK A01 T00160011  RH  098%=      5-min Rain = 0
KLES 072125Z 04006KT 02/01 A3023 RMK A01 T00160011  RH  098%=      5-min Rain = 0
KLES 072130Z 03008G13KT 02/01 A3023 RMK A01 T00160011  RH  098%=      5-min Rain = 0
KLES 072135Z 02008KT 02/01 A3023 RMK A01 T00160011  RH  098%=      5-min Rain = 0
KLES 072140Z 02009KT 02/01 A3023 RMK A01 T00150010  RH  098%=      5-min Rain = 0
KLES 072145Z 03008KT 02/01 A3021 RMK A01 T00150010  RH  098%=      5-min Rain = 0
KLES 072150Z 04009KT 02/01 A302 RMK A01 T00150010  RH  098%=      5-min Rain = 0
KLES 072155Z 04008KT 02/01 A302 RMK A01 T00150010  RH  098%=      5-min Rain = 0
KLES 072200Z 04006G11KT 02/01 A302 RMK A01 T00150011  RH  098%=      5-min Rain = 0
KLES 072205Z 04007KT 02/01 A3021 RMK A01 T00150011  RH  098%=      5-min Rain = 0
KLES 072210Z 04008G13KT 01/01 A3022 RMK A01 T00140010  RH  098%=      5-min Rain = 0
KLES 072215Z 04007KT 01/01 A3022 RMK A01 T00140009  RH  098%=      5-min Rain = 0
KLES 072220Z 02007KT 01/01 A3023 RMK A01 T00140009  RH  098%=      5-min Rain = 0
KLES 072225Z 03007G12KT 01/01 A3024 RMK A01 T00130009  RH  098%=      5-min Rain = 0
KLES 072230Z 04006KT 01/01 A3024 RMK A01 T00140009  RH  098%=      5-min Rain = 0
KLES 072235Z 04005KT 01/01 A3024 RMK A01 T00140009  RH  098%=      5-min Rain = 0
KLES 072240Z 04006KT 01/01 A3025 RMK A01 T00140010  RH  098%=      5-min Rain = 0
KLES 072245Z 05006KT 01/01 A3025 RMK A01 T00140010  RH  098%=      5-min Rain = 0
KLES 072250Z 05006KT 01/01 A3025 RMK A01 T00140009  RH  098%=      5-min Rain = 0
KLES 072255Z 05007KT 01/01 A3025 RMK A01 T00130009  RH  098%=      5-min Rain = 0
KLES 072300Z 05007KT 01/01 A3025 RMK A01 T00130009  RH  098%=      5-min Rain = 0
KLES 072305Z 05008KT 01/01 A3025 RMK A01 T00120008  RH  098%=      5-min Rain = 0
KLES 072310Z 05008KT 01/01 A3024 RMK A01 T00120008  RH  098%=      5-min Rain = 0
KLES 072315Z 05007KT 01/01 A3025 RMK A01 T00110007  RH  098%=      5-min Rain = 0
KLES 072320Z 05008KT 01/01 A3025 RMK A01 T00110007  RH  098%=      5-min Rain = 0
KLES 072325Z 06007KT 01/01 A3024 RMK A01 T00110007  RH  098%=      5-min Rain = 0
KLES 072330Z 06008KT 01/01 A3024 RMK A01 T00110007  RH  098%=      5-min Rain = 0
KLES 072335Z 06009KT 01/01 A3024 RMK A01 T00110006  RH  098%=      5-min Rain = 0
KLES 072340Z 06009KT 01/01 A3024 RMK A01 T00100006  RH  098%=      5-min Rain = 0
KLES 072345Z 05008KT 01/01 A3024 RMK A01 T00100006  RH  098%=      5-min Rain = 0
KLES 072350Z 05008G13KT 01/01 A3023 RMK A01 T00100006  RH  098%=      5-min Rain = 0
KLES 072355Z 06008KT 01/01 A3023 RMK A01 T00100006  RH  099%=      5-min Rain = 0
KLES 080000Z 06009KT 01/01 A3023 RMK A01 T00090005  RH  099%=      5-min Rain = 0
KLES 080005Z 05008KT 01/01 A3023 RMK A01 T00090005  RH  099%=      5-min Rain = 0
KLES 080010Z 06009KT 01/00 A3023 RMK A01 T00080004  RH  099%=      5-min Rain = 0
KLES 080015Z 06009KT 01/00 A3022 RMK A01 T00080004  RH  099%=      5-min Rain = 0
KLES 080020Z 06010G15KT 01/00 A3023 RMK A01 T00070003  RH  099%=      5-min Rain = 0
KLES 080025Z 07009KT 01/00 A3024 RMK A01 T00060003  RH  099%=      5-min Rain = 0
KLES 080030Z 06008KT 01/00 A3024 RMK A01 T00060003  RH  099%=      5-min Rain = 0
KLES 080035Z 06006KT 01/00 A3025 RMK A01 T00060003  RH  099%=      5-min Rain = 0
KLES 080040Z 07008KT 01/00 A3025 RMK A01 T00060003  RH  099%=      5-min Rain = 0
KLES 080045Z 06008KT 01/00 A3026 RMK A01 T00060003  RH  099%=      5-min Rain = 0
KLES 080050Z 06007KT 01/00 A3026 RMK A01 T00060003  RH  099%=      5-min Rain = 0
KLES 080055Z 05008KT 01/00 A3027 RMK A01 T00060002  RH  099%=      5-min Rain = 0
KLES 080100Z 05008KT 01/00 A3026 RMK A01 T00050002  RH  099%=      5-min Rain = 0
KLES 080105Z 05009KT 01/00 A3026 RMK A01 T00050002  RH  099%=      5-min Rain = 0
KLES 080110Z 05009KT 01/00 A3025 RMK A01 T00050002  RH  099%=      5-min Rain = 0
KLES 080115Z 05008KT 01/00 A3026 RMK A01 T00060002  RH  099%=      5-min Rain = 0
KLES 080120Z 05007KT 01/00 A3026 RMK A01 T00060002  RH  099%=      5-min Rain = 0
KLES 080125Z 05006KT 01/00 A3025 RMK A01 T00060003  RH  099%=      5-min Rain = 0
KLES 080130Z 05008G13KT 01/00 A3025 RMK A01 T00060003  RH  099%=      5-min Rain = 0
KLES 080135Z 05008KT 01/00 A3024 RMK A01 T00060003  RH  099%=      5-min Rain = 0
KLES 080140Z 06007KT 01/00 A3025 RMK A01 T00070004  RH  099%=      5-min Rain = 0
KLES 080145Z 04006KT 01/00 A3026 RMK A01 T00060003  RH  099%=      5-min Rain = 0.01
KLES 080150Z 04006KT 01/00 A3027 RMK A01 T00060003  RH  099%=      5-min Rain = 0
KLES 080155Z 03007KT 01/00 A3027 RMK A01 T00070003  RH  099%=      5-min Rain = 0
KLES 080200Z 02007KT 01/00 A3027 RMK A01 T00070004  RH  099%=      5-min Rain = 0
KLES 080205Z 02007KT 01/00 A3028 RMK A01 T00060003  RH  099%=      5-min Rain = 0
KLES 080210Z 03007KT 01/00 A3028 RMK A01 T00060003  RH  099%=      5-min Rain = 0
KLES 080215Z 03006KT 01/00 A3028 RMK A01 T00060003  RH  099%=      5-min Rain = 0
KLES 080220Z 03006KT 01/00 A3028 RMK A01 T00070004  RH  099%=      5-min Rain = 0.01
KLES 080225Z 04005KT 01/00 A3028 RMK A01 T00070004  RH  099%=      5-min Rain = 0
KLES 080230Z 04006KT 01/00 A3027 RMK A01 T00060003  RH  099%=      5-min Rain = 0.02
KLES 080235Z 03006KT 01/00 A3027 RMK A01 T00070004  RH  099%=      5-min Rain = 0.01
KLES 080240Z 03007KT 01/00 A3027 RMK A01 T00070004  RH  099%=      5-min Rain = 0.01
KLES 080245Z 03008KT 01/00 A3027 RMK A01 T00070004  RH  099%=      5-min Rain = 0.01
KLES 080250Z 02008KT 01/01 A3027 RMK A01 T00080005  RH  099%=      5-min Rain = 0
KLES 080255Z 03008KT 01/01 A3027 RMK A01 T00080005  RH  099%=      5-min Rain = 0.01
KLES 080300Z 03006KT 01/01 A3027 RMK A01 T00080005  RH  099%=      5-min Rain = 0
KLES 080305Z 03006KT 01/01 A3027 RMK A01 T00080006  RH  099%=      5-min Rain = 0.01
KLES 080310Z 03007KT 01/01 A3027 RMK A01 T00080005  RH  099%=      5-min Rain = 0.01
KLES 080315Z 03007KT 01/01 A3026 RMK A01 T00080005  RH  099%=      5-min Rain = 0
KLES 080320Z 04007KT 01/01 A3027 RMK A01 T00080005  RH  099%=      5-min Rain = 0.01
KLES 080325Z 04008KT 01/01 A3026 RMK A01 T00080005  RH  099%=      5-min Rain = 0
KLES 080330Z 04006KT 01/01 A3027 RMK A01 T00090006  RH  099%=      5-min Rain = 0
KLES 080335Z 04007KT 01/01 A3027 RMK A01 T00090005  RH  099%=      5-min Rain = 0
KLES 080340Z 04007KT 01/01 A3027 RMK A01 T00080005  RH  099%=      5-min Rain = 0.01
KLES 080345Z 04008KT 01/01 A3026 RMK A01 T00080005  RH  099%=      5-min Rain = 0
KLES 080350Z 04007KT 01/01 A3026 RMK A01 T00080005  RH  099%=      5-min Rain = 0.01
KLES 080355Z 04009KT 01/01 A3026 RMK A01 T00080005  RH  099%=      5-min Rain = 0
KLES 080400Z 04008KT 01/00 A3025 RMK A01 T00080004  RH  099%=      5-min Rain = 0
KLES 080405Z 04007KT 01/01 A3025 RMK A01 T00080005  RH  099%=      5-min Rain = 0
KLES 080410Z 04007KT 01/01 A3025 RMK A01 T00080005  RH  099%=      5-min Rain = 0
KLES 080415Z 04007KT 01/00 A3026 RMK A01 T00070004  RH  099%=      5-min Rain = 0.01
KLES 080420Z 04008KT 01/00 A3025 RMK A01 T00080004  RH  099%=      5-min Rain = 0
KLES 080425Z 05008KT 01/00 A3026 RMK A01 T00070004  RH  099%=      5-min Rain = 0
KLES 080430Z 05007KT 01/00 A3025 RMK A01 T00080004  RH  099%=      5-min Rain = 0
KLES 080435Z 04008KT 01/00 A3025 RMK A01 T00080004  RH  099%=      5-min Rain = 0
KLES 080440Z 04006KT 01/00 A3026 RMK A01 T00080004  RH  099%=      5-min Rain = 0
KLES 080445Z 03006KT 01/01 A3026 RMK A01 T00080005  RH  099%=      5-min Rain = 0.01
KLES 080450Z 03007KT 01/01 A3026 RMK A01 T00080005  RH  099%=      5-min Rain = 0
KLES 080455Z 02009KT 01/00 A3026 RMK A01 T00080004  RH  099%=      5-min Rain = 0
KLES 080500Z 03009KT 01/00 A3026 RMK A01 T00070004  RH  099%=      5-min Rain = 0
KLES 080505Z 03008KT 01/00 A3026 RMK A01 T00070003  RH  099%=      5-min Rain = 0.01
KLES 080510Z 03008KT 01/00 A3026 RMK A01 T00060002  RH  099%=      5-min Rain = 0
KLES 080515Z 03007KT 01/00 A3026 RMK A01 T00060002  RH  099%=      5-min Rain = 0.01
KLES 080520Z 03006KT 01/00 A3026 RMK A01 T00060002  RH  099%=      5-min Rain = 0
KLES 080525Z 03006KT 01/00 A3026 RMK A01 T00060002  RH  099%=      5-min Rain = 0.01
KLES 080530Z 02007KT 01/00 A3026 RMK A01 T00060003  RH  099%=      5-min Rain = 0.01
KLES 080535Z 02008KT 01/00 A3026 RMK A01 T00060002  RH  099%=      5-min Rain = 0.01
KLES 080540Z 02007KT 01/00 A3026 RMK A01 T00060002  RH  099%=      5-min Rain = 0.01
KLES 080545Z 02007KT 01/00 A3026 RMK A01 T00060002  RH  099%=      5-min Rain = 0.01
KLES 080550Z 02008KT 01/00 A3026 RMK A01 T00060003  RH  099%=      5-min Rain = 0.01
KLES 080555Z 03008KT 01/00 A3026 RMK A01 T00060002  RH  099%=      5-min Rain = 0.02

Page generated in 0.009 seconds.